createdAt,value
2017-08-09T00:01:37.065Z,17.37
2017-08-09T00:04:04.548Z,17.47
2017-08-09T00:06:32.107Z,17.22
2017-08-09T00:08:59.564Z,17.28
2017-08-09T00:11:27.054Z,17.40
2017-08-09T00:13:54.580Z,17.28
2017-08-09T00:16:22.070Z,17.17
2017-08-09T00:18:49.573Z,17.34
2017-08-09T00:21:17.034Z,17.45
2017-08-09T00:23:44.499Z,17.38
2017-08-09T00:26:11.963Z,17.35
2017-08-09T00:28:39.446Z,17.08
2017-08-09T00:31:06.980Z,17.34
2017-08-09T00:33:34.439Z,17.28
2017-08-09T00:36:01.996Z,17.23
2017-08-09T00:38:29.451Z,17.12
2017-08-09T00:40:56.895Z,17.10
2017-08-09T00:43:24.375Z,17.23
2017-08-09T00:45:51.819Z,16.89
2017-08-09T00:48:19.379Z,16.89
2017-08-09T00:50:46.839Z,17.05
2017-08-09T00:53:14.565Z,16.96
2017-08-09T00:55:42.004Z,16.92
2017-08-09T00:58:09.487Z,17.04
2017-08-09T01:00:36.941Z,16.97
2017-08-09T01:03:04.384Z,16.84
2017-08-09T01:05:31.999Z,16.98
2017-08-09T01:07:59.456Z,16.93
2017-08-09T01:10:26.943Z,16.73
2017-08-09T01:12:54.387Z,16.69
2017-08-09T01:15:21.859Z,16.63
2017-08-09T01:17:49.388Z,16.62
2017-08-09T01:20:16.849Z,16.55
2017-08-09T01:22:44.289Z,16.35
2017-08-09T01:25:11.754Z,16.37
2017-08-09T01:27:39.199Z,16.43
2017-08-09T01:30:06.982Z,16.45
2017-08-09T01:32:34.435Z,16.46
2017-08-09T01:35:01.925Z,16.49
2017-08-09T01:37:29.384Z,16.38
2017-08-09T01:39:56.884Z,16.39
2017-08-09T01:42:24.495Z,16.42
2017-08-09T01:44:51.955Z,16.54
2017-08-09T01:47:19.466Z,16.23
2017-08-09T01:49:46.915Z,16.24
2017-08-09T01:52:14.378Z,16.20
2017-08-09T01:54:42.067Z,16.18
2017-08-09T01:57:09.533Z,16.33
2017-08-09T01:59:37.046Z,16.28
2017-08-09T02:02:04.610Z,16.41
2017-08-09T02:04:32.180Z,16.43
2017-08-09T02:07:01.725Z,16.36
2017-08-09T02:09:29.187Z,16.35
2017-08-09T02:11:56.630Z,16.35
2017-08-09T02:14:24.145Z,16.22
2017-08-09T02:16:51.600Z,16.13
2017-08-09T02:19:19.407Z,16.15
2017-08-09T02:21:46.919Z,16.12
2017-08-09T02:24:14.381Z,16.06
2017-08-09T02:26:41.932Z,15.96
2017-08-09T02:29:09.395Z,16.00
2017-08-09T02:31:36.844Z,16.07
2017-08-09T02:34:04.308Z,16.06
2017-08-09T02:36:31.867Z,16.07
2017-08-09T02:38:59.314Z,16.13
2017-08-09T02:41:26.810Z,16.12
2017-08-09T02:43:54.492Z,16.17
2017-08-09T02:46:21.960Z,16.17
2017-08-09T02:48:49.393Z,15.92
2017-08-09T02:51:18.739Z,15.67
2017-08-09T02:53:46.179Z,15.72
2017-08-09T02:56:13.658Z,15.73
2017-08-09T02:58:41.114Z,15.73
2017-08-09T03:01:08.589Z,15.79
2017-08-09T03:03:36.037Z,15.88
2017-08-09T03:06:03.484Z,15.80
2017-08-09T03:08:31.357Z,15.74
2017-08-09T03:10:59.152Z,15.70
2017-08-09T03:13:26.691Z,15.51
2017-08-09T03:15:54.241Z,15.49
2017-08-09T03:18:21.699Z,15.50
2017-08-09T03:20:49.256Z,15.36
2017-08-09T03:23:16.736Z,15.18
2017-08-09T03:25:44.184Z,15.19
2017-08-09T03:28:11.647Z,15.15
2017-08-09T03:30:39.091Z,15.23
2017-08-09T03:33:06.579Z,15.15
2017-08-09T03:35:34.035Z,15.19
2017-08-09T03:38:01.510Z,15.22
2017-08-09T03:40:28.960Z,15.03
2017-08-09T03:42:56.463Z,14.84
2017-08-09T03:45:23.922Z,14.87
2017-08-09T03:47:51.482Z,14.83
2017-08-09T03:50:19.040Z,14.78
2017-08-09T03:52:46.479Z,14.77
2017-08-09T03:55:13.953Z,14.55
2017-08-09T03:57:41.539Z,14.52
2017-08-09T04:00:09.071Z,14.46
2017-08-09T04:02:36.626Z,14.09
2017-08-09T04:05:04.188Z,14.29
2017-08-09T04:07:31.644Z,14.35
2017-08-09T04:09:59.119Z,14.44
2017-08-09T04:12:26.694Z,14.38
2017-08-09T04:14:54.214Z,14.42
2017-08-09T04:17:21.676Z,14.34
2017-08-09T04:19:49.234Z,14.38
2017-08-09T04:22:16.792Z,14.20
2017-08-09T04:24:44.259Z,14.06
2017-08-09T04:27:11.779Z,14.07
2017-08-09T04:29:39.222Z,14.20
2017-08-09T04:32:06.714Z,14.34
2017-08-09T04:34:34.174Z,14.37
2017-08-09T04:37:01.731Z,14.29
2017-08-09T04:39:29.175Z,14.36
2017-08-09T04:41:56.639Z,14.49
2017-08-09T04:44:24.087Z,14.53
2017-08-09T04:46:51.664Z,14.68
2017-08-09T04:49:19.214Z,14.50
2017-08-09T04:51:46.775Z,14.43
2017-08-09T04:54:14.230Z,14.88
2017-08-09T04:56:41.699Z,16.17
2017-08-09T04:59:09.150Z,17.31
2017-08-09T05:01:36.702Z,17.80
2017-08-09T05:04:04.184Z,18.29
2017-08-09T05:06:31.728Z,18.62
2017-08-09T05:08:59.280Z,18.84
2017-08-09T05:11:26.741Z,19.23
2017-08-09T05:13:54.252Z,19.22
2017-08-09T05:16:21.715Z,19.33
2017-08-09T05:18:49.202Z,19.76
2017-08-09T05:21:16.679Z,19.33
2017-08-09T05:23:44.171Z,19.65
2017-08-09T05:26:11.690Z,19.74
2017-08-09T05:28:39.196Z,19.44
2017-08-09T05:31:06.644Z,19.70
2017-08-09T05:33:34.154Z,20.24
2017-08-09T05:36:01.599Z,20.23
2017-08-09T05:38:29.163Z,20.09
2017-08-09T05:40:56.674Z,19.31
2017-08-09T05:43:24.190Z,19.71
2017-08-09T05:45:51.639Z,20.00
2017-08-09T05:48:19.099Z,19.87
2017-08-09T05:50:46.604Z,20.05
2017-08-09T05:53:14.054Z,19.87
2017-08-09T05:55:41.547Z,20.19
2017-08-09T05:58:09.025Z,20.54
2017-08-09T06:00:36.479Z,20.70
2017-08-09T06:03:04.131Z,20.48
2017-08-09T06:05:31.627Z,20.40
2017-08-09T06:07:59.119Z,20.09
2017-08-09T06:10:26.882Z,20.43
2017-08-09T06:12:54.379Z,20.73
2017-08-09T06:15:22.045Z,20.12
2017-08-09T06:17:49.551Z,19.56
2017-08-09T06:20:17.039Z,19.56
2017-08-09T06:22:44.515Z,20.09
2017-08-09T06:25:12.011Z,19.58
2017-08-09T06:27:39.782Z,19.59
2017-08-09T06:30:07.287Z,19.44
2017-08-09T06:32:34.751Z,19.24
2017-08-09T06:35:02.203Z,18.79
2017-08-09T06:37:29.694Z,18.91
2017-08-09T06:39:57.151Z,18.70
2017-08-09T06:42:24.840Z,18.86
2017-08-09T06:44:52.430Z,18.59
2017-08-09T06:47:19.998Z,18.86
2017-08-09T06:49:47.462Z,18.80
2017-08-09T06:52:14.931Z,18.67
2017-08-09T06:54:42.482Z,18.87
2017-08-09T06:57:10.018Z,18.65
2017-08-09T06:59:37.474Z,19.12
2017-08-09T07:02:04.930Z,19.15
2017-08-09T07:04:32.399Z,19.13
2017-08-09T07:06:59.951Z,19.20
2017-08-09T07:09:27.505Z,19.14
2017-08-09T07:11:54.991Z,19.19
2017-08-09T07:14:22.517Z,19.41
2017-08-09T07:16:49.963Z,19.67
2017-08-09T07:19:17.546Z,19.43
2017-08-09T07:21:45.015Z,19.57
2017-08-09T07:24:12.487Z,19.22
2017-08-09T07:26:40.023Z,19.21
2017-08-09T07:29:07.513Z,19.59
2017-08-09T07:31:34.963Z,19.53
2017-08-09T07:34:02.495Z,19.77
2017-08-09T07:36:29.955Z,19.93
2017-08-09T07:38:57.505Z,19.90
2017-08-09T07:41:24.975Z,19.87
2017-08-09T07:43:52.416Z,19.81
2017-08-09T07:46:19.926Z,19.54
2017-08-09T07:48:47.366Z,19.69
2017-08-09T07:51:14.877Z,20.05
2017-08-09T07:53:42.324Z,20.34
2017-08-09T07:56:09.802Z,20.07
2017-08-09T07:58:37.287Z,19.77
2017-08-09T08:01:04.817Z,19.81
2017-08-09T08:03:32.260Z,20.08
2017-08-09T08:05:59.728Z,20.55
2017-08-09T08:08:27.204Z,20.72
2017-08-09T08:10:54.745Z,20.25
2017-08-09T08:13:22.191Z,20.72
2017-08-09T08:15:49.634Z,20.99
2017-08-09T08:18:17.240Z,21.27
2017-08-09T08:20:44.795Z,21.24
2017-08-09T08:23:12.375Z,21.74
2017-08-09T08:25:39.888Z,20.96
2017-08-09T08:28:07.484Z,21.20
2017-08-09T08:30:35.016Z,21.19
2017-08-09T08:33:02.507Z,20.97
2017-08-09T08:35:30.025Z,21.30
2017-08-09T08:37:57.492Z,20.93
2017-08-09T08:40:24.938Z,20.95
2017-08-09T08:42:52.403Z,21.06
2017-08-09T08:45:19.851Z,21.00
2017-08-09T08:47:47.559Z,21.30
2017-08-09T08:50:15.063Z,21.19
2017-08-09T08:52:42.635Z,21.65
2017-08-09T08:55:10.190Z,21.62
2017-08-09T08:57:37.743Z,21.62
2017-08-09T09:00:06.702Z,21.31
2017-08-09T09:02:34.293Z,21.23
2017-08-09T09:05:01.756Z,21.69
2017-08-09T09:07:29.314Z,21.64
2017-08-09T09:09:56.873Z,21.80
2017-08-09T09:12:24.422Z,21.58
2017-08-09T09:14:52.006Z,21.62
2017-08-09T09:17:19.546Z,21.90
2017-08-09T09:19:47.108Z,21.89
2017-08-09T09:22:14.552Z,22.08
2017-08-09T09:24:42.020Z,22.43
2017-08-09T09:27:09.633Z,22.28
2017-08-09T09:29:37.151Z,21.64
2017-08-09T09:32:04.589Z,21.66
2017-08-09T09:34:32.153Z,21.51
2017-08-09T09:36:59.595Z,22.17
2017-08-09T09:39:27.075Z,22.22
2017-08-09T09:41:54.620Z,21.91
2017-08-09T09:44:22.184Z,22.27
2017-08-09T09:46:49.632Z,22.04
2017-08-09T09:49:17.087Z,22.58
2017-08-09T09:51:44.635Z,23.06
2017-08-09T09:54:12.109Z,22.92
2017-08-09T09:56:39.568Z,23.32
2017-08-09T09:59:07.006Z,23.00
2017-08-09T10:01:34.483Z,22.68
2017-08-09T10:04:01.940Z,22.40
2017-08-09T10:06:29.423Z,22.68
2017-08-09T10:08:56.904Z,23.09
2017-08-09T10:11:24.360Z,22.76
2017-08-09T10:13:51.807Z,23.21
2017-08-09T10:16:19.322Z,22.64
2017-08-09T10:18:46.881Z,22.62
2017-08-09T10:21:14.435Z,22.51
2017-08-09T10:23:41.891Z,22.57
2017-08-09T10:26:09.353Z,22.82
2017-08-09T10:28:36.927Z,22.63
2017-08-09T10:31:04.472Z,22.70
2017-08-09T10:33:32.022Z,22.85
2017-08-09T10:35:59.471Z,22.77
2017-08-09T10:38:26.957Z,22.54
2017-08-09T10:40:54.398Z,23.53
2017-08-09T10:43:21.862Z,23.50
2017-08-09T10:45:49.314Z,23.82
2017-08-09T10:48:16.872Z,23.62
2017-08-09T10:50:44.327Z,23.62
2017-08-09T10:53:11.815Z,23.50
2017-08-09T10:55:39.341Z,23.31
2017-08-09T10:58:06.907Z,23.89
2017-08-09T11:00:34.406Z,23.57
2017-08-09T11:03:01.865Z,22.98
2017-08-09T11:05:29.582Z,23.10
2017-08-09T11:07:57.039Z,23.66
2017-08-09T11:10:24.578Z,24.50
2017-08-09T11:12:52.024Z,24.28
2017-08-09T11:15:19.515Z,24.26
2017-08-09T11:17:47.076Z,24.52
2017-08-09T11:20:14.603Z,24.99
2017-08-09T11:22:42.073Z,24.59
2017-08-09T11:25:09.556Z,25.34
2017-08-09T11:27:37.009Z,25.28
2017-08-09T11:30:04.480Z,24.53
2017-08-09T11:32:31.942Z,23.91
2017-08-09T11:34:59.463Z,24.03
2017-08-09T11:37:27.024Z,24.33
2017-08-09T11:39:54.467Z,23.92
2017-08-09T11:42:21.931Z,24.00
2017-08-09T11:44:49.383Z,24.42
2017-08-09T11:47:16.848Z,24.57
2017-08-09T11:49:44.298Z,24.33
2017-08-09T11:52:11.766Z,24.10
2017-08-09T11:54:39.315Z,24.57
2017-08-09T11:57:06.771Z,24.79
2017-08-09T11:59:34.231Z,25.11
2017-08-09T12:02:01.700Z,25.12
2017-08-09T12:04:29.239Z,24.90
2017-08-09T12:06:56.723Z,24.73
2017-08-09T12:09:24.178Z,24.71
2017-08-09T12:11:51.719Z,25.72
2017-08-09T12:14:19.330Z,25.20
2017-08-09T12:16:46.863Z,25.60
2017-08-09T12:19:14.325Z,25.88
2017-08-09T12:21:41.847Z,25.57
2017-08-09T12:24:09.410Z,25.76
2017-08-09T12:26:36.903Z,25.68
2017-08-09T12:29:04.425Z,25.54
2017-08-09T12:31:31.884Z,26.03
2017-08-09T12:33:59.441Z,25.77
2017-08-09T12:36:26.991Z,25.59
2017-08-09T12:38:54.559Z,25.80
2017-08-09T12:41:21.995Z,26.01
2017-08-09T12:43:49.524Z,26.25
2017-08-09T12:46:16.980Z,26.31
2017-08-09T12:48:44.487Z,26.04
2017-08-09T12:51:11.922Z,25.51
2017-08-09T12:53:39.394Z,25.82
2017-08-09T12:56:06.846Z,26.42
2017-08-09T12:58:34.490Z,26.22
2017-08-09T13:01:01.973Z,26.41
2017-08-09T13:03:29.424Z,26.29
2017-08-09T13:05:56.977Z,26.68
2017-08-09T13:08:24.444Z,26.41
2017-08-09T13:10:52.004Z,26.40
2017-08-09T13:13:19.451Z,26.33
2017-08-09T13:15:47.023Z,26.40
2017-08-09T13:18:14.477Z,26.23
2017-08-09T13:20:41.955Z,26.60
2017-08-09T13:23:09.955Z,26.52
2017-08-09T13:25:37.426Z,26.49
2017-08-09T13:28:04.916Z,26.71
2017-08-09T13:30:32.527Z,27.08
2017-08-09T13:33:00.033Z,26.89
2017-08-09T13:35:27.778Z,27.03
2017-08-09T13:37:55.239Z,26.72
2017-08-09T13:40:22.713Z,26.31
2017-08-09T13:42:50.187Z,26.67
2017-08-09T13:45:17.724Z,26.79
2017-08-09T13:47:45.264Z,26.78
2017-08-09T13:50:12.707Z,27.23
2017-08-09T13:52:40.192Z,26.77
2017-08-09T13:55:07.652Z,27.08
2017-08-09T13:57:35.115Z,27.38
2017-08-09T14:00:02.706Z,27.40
2017-08-09T14:02:30.186Z,27.47
2017-08-09T14:04:57.684Z,27.37
2017-08-09T14:07:25.233Z,27.24
2017-08-09T14:09:52.699Z,27.22
2017-08-09T14:12:21.063Z,27.46
2017-08-09T14:14:48.667Z,27.07
2017-08-09T14:17:16.110Z,27.15
2017-08-09T14:19:43.643Z,27.03
2017-08-09T14:22:11.091Z,27.30
2017-08-09T14:24:38.549Z,26.94
2017-08-09T14:27:06.006Z,27.01
2017-08-09T14:29:33.577Z,27.04
2017-08-09T14:32:01.090Z,26.64
2017-08-09T14:34:28.562Z,26.78
2017-08-09T14:36:56.049Z,26.22
2017-08-09T14:39:23.548Z,26.51
2017-08-09T14:41:51.013Z,27.08
2017-08-09T14:44:18.611Z,27.12
2017-08-09T14:46:46.076Z,27.17
2017-08-09T14:49:13.531Z,27.18
2017-08-09T14:51:41.007Z,27.44
2017-08-09T14:54:08.464Z,27.55
2017-08-09T14:56:36.018Z,27.20
2017-08-09T14:59:03.476Z,27.37
2017-08-09T15:01:30.974Z,27.67
2017-08-09T15:03:58.480Z,27.41
2017-08-09T15:06:26.090Z,27.48
2017-08-09T15:08:53.600Z,27.38
2017-08-09T15:11:21.151Z,27.41
2017-08-09T15:13:48.616Z,27.39
2017-08-09T15:16:16.088Z,27.25
2017-08-09T15:18:43.551Z,27.10
2017-08-09T15:21:11.009Z,26.88
2017-08-09T15:23:38.455Z,26.96
2017-08-09T15:26:06.008Z,27.01
2017-08-09T15:28:33.471Z,26.85
2017-08-09T15:31:00.911Z,26.91
2017-08-09T15:33:28.378Z,26.84
2017-08-09T15:35:55.903Z,27.01
2017-08-09T15:38:23.378Z,27.17
2017-08-09T15:40:50.941Z,27.09
2017-08-09T15:43:18.401Z,26.72
2017-08-09T15:45:45.855Z,26.82
2017-08-09T15:48:13.335Z,26.78
2017-08-09T15:50:40.795Z,26.83
2017-08-09T15:53:08.263Z,26.63
2017-08-09T15:55:35.792Z,26.73
2017-08-09T15:58:03.274Z,26.36
2017-08-09T16:00:30.799Z,25.88
2017-08-09T16:02:58.354Z,25.65
2017-08-09T16:05:25.913Z,25.72
2017-08-09T16:07:53.359Z,25.54
2017-08-09T16:10:20.827Z,25.88
2017-08-09T16:12:48.266Z,25.59
2017-08-09T16:15:15.726Z,25.66
2017-08-09T16:17:43.206Z,25.50
2017-08-09T16:20:10.760Z,25.31
2017-08-09T16:22:38.206Z,25.44
2017-08-09T16:25:05.668Z,25.21
2017-08-09T16:27:33.112Z,25.04
2017-08-09T16:30:00.678Z,24.95
2017-08-09T16:32:28.407Z,24.94
2017-08-09T16:34:55.901Z,24.80
2017-08-09T16:37:23.347Z,24.69
2017-08-09T16:39:50.844Z,24.73
2017-08-09T16:42:18.543Z,24.54
2017-08-09T16:44:46.007Z,24.41
2017-08-09T16:47:13.721Z,24.55
2017-08-09T16:49:41.172Z,24.59
2017-08-09T16:52:08.699Z,24.42
2017-08-09T16:54:36.169Z,24.35
2017-08-09T16:57:03.802Z,24.38
2017-08-09T16:59:31.238Z,24.41
2017-08-09T17:01:58.794Z,24.35
2017-08-09T17:04:26.249Z,24.25
2017-08-09T17:06:53.715Z,24.34
2017-08-09T17:09:21.311Z,24.35
2017-08-09T17:11:48.866Z,24.53
2017-08-09T17:14:16.332Z,24.38
2017-08-09T17:16:43.782Z,24.26
2017-08-09T17:19:11.346Z,24.10
2017-08-09T17:21:38.906Z,24.09
2017-08-09T17:24:06.387Z,24.24
2017-08-09T17:26:33.835Z,24.27
2017-08-09T17:29:01.339Z,24.17
2017-08-09T17:31:28.812Z,24.07
2017-08-09T17:33:56.291Z,24.02
2017-08-09T17:36:23.854Z,24.21
2017-08-09T17:38:51.332Z,24.31
2017-08-09T17:41:18.854Z,24.26
2017-08-09T17:43:46.331Z,24.44
2017-08-09T17:46:13.815Z,24.35
2017-08-09T17:51:15.092Z,24.61
2017-08-09T17:53:42.547Z,24.58
2017-08-09T17:56:10.011Z,24.44
2017-08-09T17:58:37.457Z,24.71
2017-08-09T18:01:04.927Z,24.65
2017-08-09T18:03:32.396Z,24.42
2017-08-09T18:05:59.970Z,24.24
2017-08-09T18:08:27.431Z,24.46
2017-08-09T18:10:54.893Z,24.55
2017-08-09T18:13:22.361Z,24.63
2017-08-09T18:15:49.857Z,24.18
2017-08-09T18:18:17.360Z,24.01
2017-08-09T18:20:44.914Z,23.97
2017-08-09T18:23:12.350Z,23.79
2017-08-09T18:25:39.815Z,23.73
2017-08-09T18:28:07.295Z,23.98
2017-08-09T18:30:34.847Z,23.54
2017-08-09T18:33:02.522Z,23.65
2017-08-09T18:35:30.071Z,23.54
2017-08-09T18:37:57.517Z,23.48
2017-08-09T18:40:24.995Z,23.10
2017-08-09T18:42:52.546Z,23.08
2017-08-09T18:45:19.992Z,23.20
2017-08-09T18:47:47.512Z,23.13
2017-08-09T18:50:14.960Z,23.18
2017-08-09T18:52:42.427Z,23.00
2017-08-09T18:55:09.902Z,22.84
2017-08-09T18:57:37.379Z,22.84
2017-08-09T19:00:04.840Z,22.96
2017-08-09T19:02:32.496Z,22.89
2017-08-09T19:04:59.974Z,22.90
2017-08-09T19:07:27.440Z,22.73
2017-08-09T19:09:54.896Z,22.65
2017-08-09T19:12:22.434Z,22.83
2017-08-09T19:14:49.946Z,22.81
2017-08-09T19:17:17.423Z,22.65
2017-08-09T19:19:44.863Z,22.50
2017-08-09T19:22:12.355Z,22.51
2017-08-09T19:24:39.911Z,22.37
2017-08-09T19:27:07.428Z,22.25
2017-08-09T19:29:34.915Z,22.23
2017-08-09T19:32:02.395Z,22.56
2017-08-09T19:34:29.857Z,22.32
2017-08-09T19:36:57.327Z,22.61
2017-08-09T19:39:24.935Z,22.32
2017-08-09T19:41:52.410Z,22.17
2017-08-09T19:44:19.972Z,22.17
2017-08-09T19:46:47.530Z,22.23
2017-08-09T19:49:14.996Z,22.01
2017-08-09T19:51:42.647Z,21.81
2017-08-09T19:54:10.206Z,22.05
2017-08-09T19:56:37.642Z,22.19
2017-08-09T19:59:05.115Z,22.02
2017-08-09T20:01:32.581Z,22.20
2017-08-09T20:04:00.238Z,22.58
2017-08-09T20:06:27.686Z,22.22
2017-08-09T20:08:55.152Z,22.10
2017-08-09T20:11:22.612Z,22.14
2017-08-09T20:13:50.054Z,22.12
2017-08-09T20:16:17.515Z,22.04
2017-08-09T20:18:44.963Z,22.04
2017-08-09T20:21:12.561Z,22.05
2017-08-09T20:23:40.097Z,22.07
2017-08-09T20:26:07.559Z,22.00
2017-08-09T20:28:35.270Z,21.79
2017-08-09T20:31:02.791Z,21.84
2017-08-09T20:33:30.333Z,21.93
2017-08-09T20:35:57.788Z,21.79
2017-08-09T20:38:25.236Z,21.83
2017-08-09T20:40:52.719Z,21.71
2017-08-09T20:43:20.263Z,21.73
2017-08-09T20:45:47.738Z,21.72
2017-08-09T20:48:15.279Z,21.74
2017-08-09T20:50:42.744Z,21.64
2017-08-09T20:53:10.589Z,21.56
2017-08-09T20:55:38.106Z,21.91
2017-08-09T20:58:05.601Z,21.68
2017-08-09T21:00:33.051Z,21.67
2017-08-09T21:03:00.634Z,21.68
2017-08-09T21:05:28.344Z,21.63
2017-08-09T21:07:55.855Z,21.51
2017-08-09T21:10:23.305Z,21.25
2017-08-09T21:12:50.771Z,20.92
2017-08-09T21:15:18.224Z,20.67
2017-08-09T21:17:46.014Z,20.41
2017-08-09T21:20:13.530Z,20.47
2017-08-09T21:22:41.051Z,20.51
2017-08-09T21:25:08.504Z,20.44
2017-08-09T21:27:36.012Z,20.17
2017-08-09T21:30:03.461Z,20.25
2017-08-09T21:32:30.906Z,20.51
2017-08-09T21:34:58.417Z,20.86
2017-08-09T21:37:25.863Z,20.84
2017-08-09T21:39:53.395Z,21.04
2017-08-09T21:42:20.969Z,20.93
2017-08-09T21:44:48.462Z,21.09
2017-08-09T21:47:15.907Z,21.36
2017-08-09T21:49:43.403Z,21.38
2017-08-09T21:52:10.879Z,21.25
2017-08-09T21:54:38.444Z,21.36
2017-08-09T21:57:05.899Z,21.27
2017-08-09T21:59:33.405Z,21.35
2017-08-09T22:02:00.913Z,21.43
2017-08-09T22:04:28.462Z,21.18
2017-08-09T22:06:55.903Z,21.04
2017-08-09T22:09:23.371Z,20.65
2017-08-09T22:11:50.823Z,20.50
2017-08-09T22:14:18.279Z,20.27
2017-08-09T22:16:45.856Z,20.32
2017-08-09T22:19:13.299Z,19.98
2017-08-09T22:21:40.768Z,20.10
2017-08-09T22:24:08.206Z,19.92
2017-08-09T22:26:35.769Z,19.87
2017-08-09T22:29:03.243Z,19.95
2017-08-09T22:31:30.799Z,19.79
2017-08-09T22:33:58.350Z,19.85
2017-08-09T22:36:25.820Z,19.79
2017-08-09T22:38:53.300Z,19.73
2017-08-09T22:41:20.829Z,19.74
2017-08-09T22:43:48.391Z,19.75
2017-08-09T22:46:15.854Z,19.63
2017-08-09T22:48:43.303Z,19.66
2017-08-09T22:51:10.811Z,19.63
2017-08-09T22:53:38.251Z,19.60
2017-08-09T22:56:05.772Z,19.45
2017-08-09T22:58:33.260Z,19.11
2017-08-09T23:01:00.781Z,18.92
2017-08-09T23:03:28.339Z,18.83
2017-08-09T23:05:55.778Z,19.08
2017-08-09T23:08:23.234Z,18.80
2017-08-09T23:10:50.711Z,18.71
2017-08-09T23:13:18.166Z,18.54
2017-08-09T23:15:45.625Z,18.71
2017-08-09T23:18:13.188Z,18.56
2017-08-09T23:20:40.734Z,18.45
2017-08-09T23:23:08.208Z,18.09
2017-08-09T23:25:35.667Z,18.20
2017-08-09T23:28:03.137Z,18.24
2017-08-09T23:30:30.579Z,18.37
2017-08-09T23:32:58.061Z,18.53
2017-08-09T23:35:25.506Z,18.60
2017-08-09T23:37:52.955Z,18.68
2017-08-09T23:40:20.499Z,18.63
2017-08-09T23:42:48.049Z,18.90
2017-08-09T23:45:15.545Z,18.89
2017-08-09T23:47:43.067Z,18.72
2017-08-09T23:50:10.544Z,18.76
2017-08-09T23:52:37.995Z,18.68
2017-08-09T23:55:05.471Z,18.75
2017-08-09T23:57:32.910Z,18.94
